Nearby METAR Reports

 

KCFV - Coffeyville, Kansas, USA
Distance from station: ENE 93mi, 150km
Updated: Wed, 09-26-2018 12:52am CDT
Few Clouds
Few Clouds
 Wind from NNE
Wind: NNE 15 mph , 24 km/h
Temperature: 63°F , 17°C
Dew Point: 55°F , 13°C
Humidity: 77%
Barometer: 1020.7 hPa
Clouds: Few Clouds
Visibility: 10 miles , 16 km
Cloud details: Few Clouds 10000 ft
2018/09/26 05:52 KCFV 260552Z AUTO 02013KT 10SM FEW100 17/13 A3014 RMK AO2 SLP202 60017 T01670128 10222 20167 403220167 51024
KIDP - Independence, Kansas, USA
Distance from station: NE 86mi, 138km
Updated: Wed, 09-26-2018 1:15am CDT
Clear
Clear
 Wind from N
Wind: N 10 mph , 17 km/h
Barometer: 1022 hPa
Clouds: Clear
Visibility: 10 miles , 16 km
2018/09/26 06:15 KIDP 260615Z AUTO 01009KT 10SM CLR A3018 RMK AO2
KIAB - Mcconnell Afb, Kansas, USA
Distance from station: N 84mi, 135km
Updated: Wed, 09-26-2018 12:56am CDT
Clear
Clear
 Wind from NNE
Wind: NNE 9 mph , 15 km/h
Temperature: 55°F , 13°C
Dew Point: 48°F , 9°C
Humidity: 77%
Barometer: 1023 hPa
Clouds: Clear
Visibility: 10 miles , 16 km
2018/09/26 05:56 KIAB 260556Z AUTO 02008KT 10SM CLR 13/09 A3021 RMK AO2 SLP226 T01290086 10181 20129 402620129 52017 $
 
KICT - Wichita, Kansas, USA
Distance from station: NNW 88mi, 142km
Updated: Wed, 09-26-2018 12:53am CDT
Partly cloudy
Partly cloudy
 Wind from NNE
Wind: NNE 8 mph , 13 km/h
Temperature: 57°F , 14°C
Dew Point: 48°F , 9°C
Humidity: 72%
Barometer: 1023 hPa
Clouds: Partly cloudy
Visibility: 10 miles , 16 km
Cloud details: Partly cloudy 22000 ft
2018/09/26 05:53 KICT 260553Z 03007KT 10SM SCT220 14/09 A3021 RMK AO2 SLP222 T01440094 10194 20144 402720144 51018
KAAO - Wichita/Jabara, Kansas, USA
Distance from station: N 93mi, 149km
Updated: Wed, 09-26-2018 12:54am CDT
Clear
Clear
 Wind from N
Wind: N 6 mph , 9 km/h
Temperature: 52°F , 11°C
Dew Point: 48°F , 9°C
Humidity: 88%
Barometer: 1023 hPa
Clouds: Clear
Visibility: 10 miles , 16 km
2018/09/26 05:54 KAAO 260554Z AUTO 01005KT 10SM CLR 11/09 A3021 RMK AO2 SLP226 T01060094 10178 20106 402610106 51019
KWLD - Winfield/Arkansa, Kansas, USA
Distance from station: N 52mi, 84km
Updated: Wed, 09-26-2018 12:54am CDT
Clear
Clear
 Wind from NNE
Wind: NNE 9 mph , 15 km/h
Temperature: 61°F , 16°C
Dew Point: 48°F , 9°C
Humidity: 63%
Barometer: 1023 hPa
Clouds: Clear
Visibility: 10 miles , 16 km
2018/09/26 05:54 KWLD 260554Z AUTO 02008KT 10SM CLR 16/09 A3021 RMK AO2 SLP221 T01560094 10194 20156 403000156 51020
 
KAVK - Alva, Oklahoma, USA
Distance from station: WNW 94mi, 152km
Updated: Wed, 09-26-2018 1:15am CDT
Clear
Clear
 Wind from N
Wind: N 8 mph , 13 km/h
Temperature: 59°F , 15°C
Dew Point: 50°F , 10°C
Humidity: 72%
Barometer: 1024 hPa
Clouds: Clear
Visibility: 10 miles , 16 km
2018/09/26 06:15 KAVK 260615Z AUTO 01007KT 10SM CLR 15/10 A3024 RMK AO2
KBVO - Bartlesville, Oklahoma, USA
Distance from station: ENE 61mi, 98km
Updated: Wed, 09-26-2018 12:53am CDT
Few Clouds
Few Clouds
 Wind from N
Wind: N 13 mph , 20 km/h, Gust: 23 mph , 37 km/h
Temperature: 63°F , 17°C
Dew Point: 54°F , 12°C
Humidity: 73%
Barometer: 1022 hPa
Clouds: Few Clouds
Visibility: 10 miles , 16 km
Cloud details: Few Clouds 7500 ft
Few Clouds 9000 ft
2018/09/26 05:53 KBVO 260553Z AUTO 01011G20KT 10SM FEW075 FEW090 17/12 A3018 RMK AO2 SLP209 60004 T01720122 10233 20172 403330167 51026
KBKN - Blackwell, Oklahoma, USA
Distance from station: NW 29mi, 47km
Updated: Wed, 09-26-2018 1:35am CDT

 Wind from NNE
Wind: NNE 7 mph , 11 km/h
Temperature: 61°F , 16°C
Dew Point: 52°F , 11°C
Humidity: 72%
Barometer: 1023.7 hPa
Visibility: 10 miles , 16 km
2018/09/26 06:35 KBKN 260635Z AUTO 02006KT 10SM 16/11 A3023 RMK AO2
 
KGCM - Claremore, Oklahoma, USA
Distance from station: E 86mi, 138km
Updated: Wed, 09-26-2018 1:15am CDT
Overcast
Overcast
 Wind from N
Wind: N 13 mph , 20 km/h
Temperature: 63°F , 17°C
Dew Point: 52°F , 11°C
Humidity: 68%
Barometer: 1021 hPa
Clouds: Overcast
Visibility: 10 miles , 16 km
Cloud details: Partly cloudy 4000 ft
Mostly cloudy 5000 ft
Overcast 7500 ft
2018/09/26 06:15 KGCM 260615Z AUTO 01011KT 10SM SCT040 BKN050 OVC075 17/11 A3015 RMK AO2 TSNO
KCQB - Chandler, Oklahoma, USA
Distance from station: SSE 50mi, 80km
Updated: Wed, 09-26-2018 1:35am CDT
Overcast
Overcast
 Wind from NNE
Wind: NNE 8 mph , 13 km/h, Gust: 17 mph , 28 km/h
Temperature: 64°F , 18°C
Dew Point: 54°F , 12°C
Humidity: 68%
Barometer: 1021 hPa
Clouds: Overcast
Visibility: 10 miles , 16 km
Cloud details: Mostly cloudy 6000 ft
Mostly cloudy 7000 ft
Overcast 11000 ft
2018/09/26 06:35 KCQB 260635Z AUTO 02007G15KT 10SM BKN060 BKN070 OVC110 18/12 A3015 RMK
KCUH - Cushing, Oklahoma, USA
Distance from station: SSE 35mi, 57km
Updated: Wed, 09-26-2018 1:35am CDT
Overcast
Overcast
 Wind from NE
Wind: NE 10 mph , 17 km/h, Gust: 17 mph , 28 km/h
Temperature: 64°F , 18°C
Dew Point: 54°F , 12°C
Humidity: 68%
Barometer: 1021 hPa
Clouds: Overcast
Visibility: 10 miles , 16 km
Cloud details: Partly cloudy 3600 ft
Mostly cloudy 5500 ft
Overcast 7500 ft
2018/09/26 06:35 KCUH 260635Z AUTO 04009G15KT 10SM SCT036 BKN055 OVC075 18/12 A3015 RMK AO2 LTG
 
KRQO - El Reno Muni, Oklahoma, USA
Distance from station: SW 85mi, 137km
Updated: Wed, 09-26-2018 1:15am CDT
Rain, Overcast
Rain, Overcast
 Wind from NNE
Wind: NNE 22 mph , 35 km/h, Gust: 32 mph , 52 km/h
Temperature: 59°F , 15°C
Dew Point: 55°F , 13°C
Humidity: 88%
Barometer: 1021.7 hPa
Summary: Rain
Clouds: Overcast
Visibility: 5 miles , 8 km
Cloud details: Partly cloudy 1200 ft
Mostly cloudy 5000 ft
Overcast 7000 ft
2018/09/26 06:15 KRQO 260615Z AUTO 02019G28KT 5SM RA SCT012 BKN050 OVC070 15/13 A3017 RMK AO2 P0018 T01550129
KEND - Enid/Vance Afb, Oklahoma, USA
Distance from station: W 50mi, 81km
Updated: Wed, 09-26-2018 12:56am CDT
Clear
Clear
 Wind from NNE
Wind: NNE 13 mph , 20 km/h, Gust: 18 mph , 30 km/h
Temperature: 63°F , 17°C
Dew Point: 52°F , 11°C
Humidity: 68%
Barometer: 1022.4 hPa
Clouds: Clear
Visibility: 10 miles , 16 km
2018/09/26 05:56 KEND 260556Z AUTO 02011G16KT 10SM CLR 17/11 A3019 RMK AO2 SLP215 T01660107 10214 20166 403060166 52020 VISNO RWY35C $
KWDG - Enid/Woodring, Oklahoma, USA
Distance from station: W 42mi, 67km
Updated: Wed, 09-26-2018 1:35am CDT
Clear
Clear
 Wind from NNE
Wind: NNE 12 mph , 19 km/h
Temperature: 61°F , 16°C
Dew Point: 52°F , 11°C
Humidity: 72%
Barometer: 1022.4 hPa
Clouds: Clear
Visibility: 10 miles , 16 km
2018/09/26 06:35 KWDG 260635Z AUTO 02010KT 10SM CLR 16/11 A3019 RMK AO2
 
KGOK - Guthrie, Oklahoma, USA
Distance from station: SSW 44mi, 71km
Updated: Wed, 09-26-2018 12:53am CDT
Overcast
Overcast
 Wind from NNE
Wind: NNE 9 mph , 15 km/h
Temperature: 64°F , 18°C
Dew Point: 52°F , 11°C
Humidity: 64%
Barometer: 1021.3 hPa
Clouds: Overcast
Visibility: 10 miles , 16 km
Cloud details: Overcast 6000 ft
2018/09/26 05:53 KGOK 260553Z AUTO 03008KT 10SM OVC060 18/11 A3016 RMK AO2 SLP206 T01830111 10244 20183 403110183 51021
KOUN - Norman/Westheime, Oklahoma, USA
Distance from station: SSW 84mi, 136km
Updated: Wed, 09-26-2018 1:15am CDT
Overcast
Overcast
 Wind from NNE
Wind: NNE 16 mph , 26 km/h, Gust: 28 mph , 44 km/h
Temperature: 66°F , 19°C
Dew Point: 54°F , 12°C
Humidity: 64%
Barometer: 1020.3 hPa
Clouds: Overcast
Visibility: 10 miles , 16 km
Cloud details: Mostly cloudy 6000 ft
Mostly cloudy 7000 ft
Overcast 11000 ft
2018/09/26 06:15 KOUN 260615Z AUTO 02014G24KT 10SM BKN060 BKN070 OVC110 19/12 A3013 RMK AO2 T01860117
KOKC - Oklahoma City, Oklahoma, USA
Distance from station: SSW 78mi, 126km
Updated: Wed, 09-26-2018 12:52am CDT
Overcast
Overcast
 Wind from N
Wind: N 20 mph , 31 km/h, Gust: 26 mph , 43 km/h
Temperature: 64°F , 18°C
Dew Point: 54°F , 12°C
Humidity: 68%
Barometer: 1020.7 hPa
Clouds: Overcast
Visibility: 10 miles , 16 km
Cloud details: Overcast 5000 ft
2018/09/26 05:52 KOKC 260552Z 01017G23KT 10SM OVC050 18/12 A3014 RMK AO2 LTG DSNT W AND NW SLP192 T01830117 10256 20183 403060183 51021
 
KPWA - Okla City/Wiley, Oklahoma, USA
Distance from station: SSW 70mi, 113km
Updated: Wed, 09-26-2018 12:53am CDT
Overcast
Overcast
 Wind from NNE
Wind: NNE 16 mph , 26 km/h, Gust: 26 mph , 43 km/h
Temperature: 64°F , 18°C
Dew Point: 54°F , 12°C
Humidity: 68%
Barometer: 1021 hPa
Clouds: Overcast
Visibility: 10 miles , 16 km
Cloud details: Overcast 5500 ft
2018/09/26 05:53 KPWA 260553Z AUTO 02014G23KT 10SM OVC055 18/12 A3015 RMK AO2 LTG DSNT W SLP198 T01830122 10250 20183 403110183 51020
KRCE - Okla City/Page, Oklahoma, USA
Distance from station: SW 78mi, 126km
Updated: Wed, 09-26-2018 1:35am CDT
Light drizzle, Overcast
Light drizzle, Overcast
 Wind from NNE
Wind: NNE 14 mph , 22 km/h, Gust: 22 mph , 35 km/h
Temperature: 63°F , 17°C
Dew Point: 54°F , 12°C
Humidity: 73%
Barometer: 1021.7 hPa
Summary: Light Drizzle
Clouds: Overcast
Visibility: 10 miles , 16 km
Cloud details: Few Clouds 4400 ft
Mostly cloudy 5500 ft
Overcast 6500 ft
2018/09/26 06:35 KRCE 260635Z AUTO 03012G19KT 10SM -DZ FEW044 BKN055 OVC065 17/12 A3017 RMK AO2 LTG DSNT E AND SE
KOKM - Okmulgee, Oklahoma, USA
Distance from station: SE 79mi, 127km
Updated: Wed, 09-26-2018 1:15am CDT
Partly cloudy
Partly cloudy
 Wind from N
Wind: N 16 mph , 26 km/h, Gust: 25 mph , 41 km/h
Temperature: 64°F , 18°C
Dew Point: 55°F , 13°C
Humidity: 73%
Barometer: 1020 hPa
Clouds: Partly cloudy
Visibility: 10 miles , 16 km
Cloud details: Partly cloudy 10000 ft
2018/09/26 06:15 KOKM 260615Z AUTO 01014G22KT 320V020 10SM SCT100 18/13 A3012 RMK AO2 T01810129
 
KPNC - Ponca City, Oklahoma, USA
Distance from station: N 22mi, 36km
Updated: Wed, 09-26-2018 12:53am CDT
Clear
Clear
 Wind from NNE
Wind: NNE 9 mph , 15 km/h
Temperature: 61°F , 16°C
Dew Point: 48°F , 9°C
Humidity: 63%
Barometer: 1022.4 hPa
Clouds: Clear
Visibility: 10 miles , 16 km
2018/09/26 05:53 KPNC 260553Z AUTO 03008KT 10SM CLR 16/09 A3019 RMK AO2 SLP211 T01610094 10211 20161 403170161 51022
KSNL - Shawnee, Oklahoma, USA
Distance from station: S 74mi, 119km
Updated: Wed, 09-26-2018 1:15am CDT
Overcast
Overcast
 Wind from NNE
Wind: NNE 16 mph , 26 km/h, Gust: 23 mph , 37 km/h
Temperature: 64°F , 18°C
Dew Point: 54°F , 12°C
Humidity: 68%
Barometer: 1020.7 hPa
Clouds: Overcast
Visibility: 10 miles , 16 km
Cloud details: Partly cloudy 6000 ft
Overcast 9000 ft
2018/09/26 06:15 KSNL 260615Z AUTO 02014G20KT 10SM SCT060 OVC090 18/12 A3014 RMK AO2 T01780121
KSWO - Stillwater, Oklahoma, USA
Distance from station: S 17mi, 28km
Updated: Wed, 09-26-2018 12:53am CDT
Overcast
Overcast
 Wind from NNE
Wind: NNE 16 mph , 26 km/h
Temperature: 64°F , 18°C
Dew Point: 52°F , 11°C
Humidity: 64%
Barometer: 1021.7 hPa
Clouds: Overcast
Visibility: 10 miles , 16 km
Cloud details: Overcast 7000 ft
2018/09/26 05:53 KSWO 260553Z AUTO 03014KT 10SM OVC070 18/11 A3017 RMK AO2 SLP204 T01830106 10233 20178 403170178 51023
 
KTIK - Tinker Afb, Oklahoma, USA
Distance from station: SSW 72mi, 115km
Updated: Wed, 09-26-2018 12:56am CDT
Partly cloudy
Partly cloudy
 Wind from NNE
Wind: NNE 18 mph , 30 km/h, Gust: 32 mph , 52 km/h
Temperature: 64°F , 18°C
Dew Point: 52°F , 11°C
Humidity: 64%
Barometer: 1020.7 hPa
Clouds: Partly cloudy
Visibility: 10 miles , 16 km
Cloud details: Few Clouds 5500 ft
Partly cloudy 10000 ft
2018/09/26 05:56 KTIK 260556Z AUTO 02016G28KT 10SM FEW055 SCT100 18/11 A3014 RMK AO2 PK WND 01028/46 SLP203 T01830114 10275 20183 403100183 52022 $
KTUL - Tulsa, Oklahoma, USA
Distance from station: ESE 65mi, 105km
Updated: Wed, 09-26-2018 12:53am CDT
Overcast
Overcast
 Wind from NNE
Wind: NNE 20 mph , 31 km/h, Gust: 26 mph , 43 km/h
Temperature: 66°F , 19°C
Dew Point: 55°F , 13°C
Humidity: 68%
Barometer: 1020 hPa
Clouds: Overcast
Visibility: 10 miles , 16 km
Cloud details: Mostly cloudy 3500 ft
Overcast 6500 ft
2018/09/26 05:53 KTUL 260553Z 02017G23KT 10SM BKN035 OVC065 19/13 A3012 RMK AO2 PK WND 01029/0536 SLP193 T01890128 10306 20189 403220189 51025